Macdill AFB, Florida
Current Conditions -  °F | °C
As of 12:58 PM on Thursday 30 Oct 2014 (Local Time) from KMCF Reporting Station
Clear Clear  
Wind Chill: 78°   Ceiling: Unl
Heat Index: 81°   Visibility: 10mi
Dew Point: 71°   Wind: 3mph
Humidity: 78%   Direction: 200°SSW
Pressure: 29.96"   Gusts: NA
Location:  27.8467°N, 82.5182°W
Report Text: KMCF 301658Z AUTO 20003KT 10SM CLR 26/22 A2996 RMK AO2 DZB1638E1647 SLP148 P0000 T02580217
Loading
Personal Weather Stations






























Interactive Weather Map
Tropical Storm Tracking
New forecast layout! Learn more

10-Day Weather Forecast

Advertisements
Track Severe Weather on mobile